首页
METAR-TAF:

METAR-TAF

机场 :

倫敦城市機場

伦敦, 英格兰

纬度: 51-30N, 经度: 000-03E, 海拔: 5米

当前天气观测

该预报发布于23分钟前的18:20 UTC
风速9节,风向东转东北,在之间变化
温度 18°C
湿度 77%
气压 1028 hPa
能见度10公里或以上
阴天层高于1800英尺

METAR: EGLC 261820Z AUTO 06009KT 350V090 9999 OVC018 18/14 Q1028

时间: 19:43 (18:43 UTC)

预报

该预报发布于53分钟前的17:50 UTC
预报有效从26日的 18点(UTC)到 26日的 21点(UTC)
风速10节,风向东北
能见度10公里或以上
散云层高于2000英尺
短暂存在
从 26日的 18点(UTC)到 26日的 21点(UTC)
多云层高于1200英尺

TAF: EGLC 261750Z 2618/2621 05010KT 9999 SCT020 TEMPO 2618/2621 BKN012

超过4000个机场的气象观测和天气预报(METAR&TAF报告)。

可查询的气象台以黄色和红色小点在地图上表示。

将鼠标移到小点上方,可查看气象台名称。

然后点击查看天气观测和预报。

如需切换地图:点击带黑十字的绿色按钮放大地图;点击带横线的绿色按钮缩小地图;或者点击绿色箭头查看邻近地区的地图。


METAR-TAF: